Kununurra Argyle Aerodrome, Australia
Current Conditions -  °F | °C
As of 8:00 AM on Wednesday 22 Oct 2014 (Local Time) from YARG Reporting Station
Clear Clear  
Wind Chill: 88°   Ceiling: Unl
Heat Index: 88°   Visibility: 6mi
Dew Point: 63°   Wind: 2mph
Humidity: 43%   Direction: 180°S
Pressure: 29.97"   Gusts: NA
Location:  16.63°S, 128.45°E
Report Text: YARG 220000Z AUTO 18002KT 9999 // NCD 31/17 Q1015
Loading
Personal Weather Stations






























Interactive Weather Map
Tropical Storm Tracking
New forecast layout! Learn more

10-Day Weather Forecast

Advertisements
Track Severe Weather on mobile